Kings Creek, North Carolina
Current Conditions -  °F | °C
As of 10:55 PM on Tuesday 27 Jan 2015 (Local Time) from KMRN Reporting Station
Clear Clear  
Wind Chill: 24°   Ceiling: Unl
Heat Index: 32°   Visibility: 10mi
Dew Point: 13°   Wind: 9mph
Humidity: 45%   Direction: 300°WNW
Pressure: 30.04"   Gusts: 16mph
Location:  35.9726°N, 81.5331°W
Report Text: KMRN 280355Z AUTO 30008G14KT 10SM CLR 00/M10 A3004 RMK AO2 T00011105
Loading
Personal Weather Stations






























Interactive Weather Map New forecast layout! Learn more

10-Day Weather Forecast

Advertisements
Track Severe Weather on mobile